Time;durP1;ratioP1;P1;durP2;ratioP2;P2;SDS_P1;SDS_P2;PMS_P1;PMS_P2;Temp;Humidity;BMP_temperature;BMP_pressure;BME280_temperature;BME280_humidity;BME280_pressure;Samples;Min_cycle;Max_cycle;Signal;HPM_P1;HPM_P2
2021/08/29 00:01:22;;;;;;;4.80;4.40;;;15.20;99.90;;;;;;5014960;28;20026;-76
2021/08/29 00:03:49;;;;;;;5.60;4.75;;;15.20;99.90;;;;;;5013729;28;20030;-76
2021/08/29 00:06:17;;;;;;;4.97;4.65;;;15.10;99.90;;;;;;5015764;28;20042;-77
2021/08/29 00:08:44;;;;;;;4.68;4.28;;;15.20;99.90;;;;;;5014985;28;20093;-77
2021/08/29 00:11:12;;;;;;;4.97;4.50;;;15.40;99.90;;;;;;5014448;28;20446;-77
2021/08/29 00:13:39;;;;;;;4.88;4.47;;;15.50;99.90;;;;;;4997890;28;20030;-76
2021/08/29 00:16:06;;;;;;;4.22;3.90;;;15.60;99.90;;;;;;5015010;28;20033;-76
2021/08/29 00:18:34;;;;;;;4.07;3.78;;;15.70;99.90;;;;;;5014712;28;20022;-76
2021/08/29 00:21:01;;;;;;;4.03;3.58;;;15.80;99.90;;;;;;5014932;28;20025;-76
2021/08/29 00:23:29;;;;;;;3.80;2.80;;;16.00;99.90;;;;;;5013607;28;20022;-76
2021/08/29 00:25:56;;;;;;;3.65;2.75;;;16.20;99.90;;;;;;5014793;28;20123;-76
2021/08/29 00:28:24;;;;;;;3.03;2.70;;;16.20;99.90;;;;;;5013539;28;20030;-77
2021/08/29 00:30:51;;;;;;;2.55;2.35;;;16.20;99.90;;;;;;5013481;28;20022;-76
2021/08/29 00:33:18;;;;;;;4.00;3.20;;;16.10;99.90;;;;;;5013343;28;20026;-76
2021/08/29 00:35:45;;;;;;;5.80;5.30;;;16.10;99.90;;;;;;5014517;28;20049;-77
2021/08/29 00:38:13;;;;;;;6.40;5.35;;;16.10;99.90;;;;;;5013246;28;20033;-77
2021/08/29 00:40:40;;;;;;;6.25;5.65;;;15.70;99.90;;;;;;5013060;28;20065;-76
2021/08/29 00:43:07;;;;;;;6.22;5.63;;;15.50;99.90;;;;;;5014484;28;20033;-76
2021/08/29 00:45:36;;;;;;;5.95;5.35;;;15.30;99.90;;;;;;5014303;28;20022;-77
2021/08/29 00:48:07;;;;;;;6.10;5.60;;;15.20;99.90;;;;;;5014256;28;20101;-76
2021/08/29 00:50:35;;;;;;;6.38;5.82;;;15.10;99.90;;;;;;5013435;28;20371;-77
2021/08/29 00:53:08;;;;;;;7.55;6.45;;;15.00;99.90;;;;;;5012905;28;20030;-77
2021/08/29 00:55:39;;;;;;;7.20;6.50;;;15.10;99.90;;;;;;5014237;28;20080;-76
2021/08/29 00:58:07;;;;;;;6.93;5.80;;;15.10;99.90;;;;;;5012874;28;20390;-76
2021/08/29 01:00:40;;;;;;;6.00;5.40;;;15.10;99.90;;;;;;5014068;28;20056;-76
2021/08/29 01:03:25;;;;;;;5.85;5.10;;;15.10;99.90;;;;;;5014242;28;20030;-76
2021/08/29 01:06:11;;;;;;;5.57;5.07;;;15.30;99.90;;;;;;5012651;28;20049;-76
2021/08/29 01:08:41;;;;;;;4.60;4.20;;;15.40;99.90;;;;;;5014107;28;20437;-76
2021/08/29 01:11:24;;;;;;;4.50;3.70;;;15.40;99.90;;;;;;5014317;28;20425;-75
2021/08/29 01:14:01;;;;;;;5.00;4.50;;;15.40;99.90;;;;;;5013917;28;20045;-76
2021/08/29 01:16:35;;;;;;;5.53;4.60;;;15.40;99.90;;;;;;5012664;28;20040;-76
2021/08/29 01:19:11;;;;;;;4.18;3.88;;;15.60;99.90;;;;;;5013801;28;20030;-75
2021/08/29 01:21:40;;;;;;;4.05;3.65;;;16.20;99.90;;;;;;5013821;28;20030;-75
2021/08/29 01:24:12;;;;;;;3.80;2.80;;;17.00;99.90;;;;;;5013540;28;20018;-75
2021/08/29 01:26:48;;;;;;;3.20;2.90;;;17.00;99.90;;;;;;5012427;28;20386;-75
2021/08/29 01:29:19;;;;;;;3.65;3.03;;;17.00;99.90;;;;;;5013759;28;20475;-75
2021/08/29 01:31:47;;;;;;;3.28;2.72;;;16.70;99.90;;;;;;5013649;28;20057;-75
2021/08/29 01:34:17;;;;;;;3.63;3.00;;;16.80;99.90;;;;;;5013497;28;20105;-75
2021/08/29 01:36:49;;;;;;;2.80;2.60;;;16.90;99.90;;;;;;5013478;28;20113;-75
2021/08/29 01:39:18;;;;;;;4.00;2.97;;;16.90;99.90;;;;;;5013578;28;20030;-75
2021/08/29 01:41:48;;;;;;;4.93;2.60;;;16.80;99.90;;;;;;5013363;28;20079;-75
2021/08/29 01:44:17;;;;;;;;;;;16.70;99.90;;;;;;5013879;28;20481;-75
2021/08/29 01:46:46;;;;;;;6.47;3.00;;;16.70;99.90;;;;;;5013430;28;20321;-75
2021/08/29 01:49:14;;;;;;;4.45;3.35;;;16.70;99.90;;;;;;5011904;28;20032;-76
2021/08/29 01:51:42;;;;;;;6.32;2.90;;;16.90;99.90;;;;;;5012004;28;20139;-76
2021/08/29 01:54:10;;;;;;;7.93;3.00;;;16.90;99.80;;;;;;5013275;28;20478;-76
2021/08/29 01:56:59;;;;;;;6.15;2.90;;;17.10;99.50;;;;;;5013195;28;20029;-76
2021/08/29 01:59:27;;;;;;;3.55;2.97;;;17.20;99.50;;;;;;5011577;28;20026;-75
2021/08/29 02:01:55;;;;;;;4.30;2.67;;;17.30;99.20;;;;;;5011988;28;20474;-76
2021/08/29 02:04:24;;;;;;;4.57;3.00;;;17.10;99.00;;;;;;5011531;28;20041;-76
2021/08/29 02:07:10;;;;;;;5.53;2.90;;;17.10;99.10;;;;;;5013112;28;20052;-76
2021/08/29 02:09:44;;;;;;;5.22;2.80;;;17.10;99.00;;;;;;5011706;28;20500;-75
2021/08/29 02:12:12;;;;;;;5.18;2.40;;;16.90;99.40;;;;;;5013193;28;20025;-76
2021/08/29 02:15:07;;;;;;;5.57;2.80;;;16.80;99.90;;;;;;5012962;28;20032;-75
2021/08/29 02:17:36;;;;;;;5.60;2.90;;;16.70;99.90;;;;;;5013130;28;20026;-76
2021/08/29 02:20:10;;;;;;;3.90;2.33;;;16.70;99.90;;;;;;5012813;28;20026;-76
2021/08/29 02:22:38;;;;;;;5.90;3.28;;;16.90;99.90;;;;;;5013150;28;20018;-75
2021/08/29 02:25:07;;;;;;;5.22;3.25;;;17.50;99.90;;;;;;5011677;28;20026;-76
2021/08/29 02:27:36;;;;;;;4.95;3.28;;;17.90;99.90;;;;;;5012945;28;20038;-76
2021/08/29 02:30:06;;;;;;;5.60;3.63;;;18.00;99.60;;;;;;5012802;28;20040;-76
2021/08/29 02:32:39;;;;;;;7.72;3.03;;;17.70;99.30;;;;;;5013331;28;20486;-76
2021/08/29 02:35:08;;;;;;;4.90;2.92;;;17.70;99.10;;;;;;5011734;28;20434;-75
2021/08/29 02:37:37;;;;;;;4.53;2.75;;;17.50;99.90;;;;;;5011839;28;20025;-76
2021/08/29 02:40:07;;;;;;;3.85;2.70;;;17.70;99.90;;;;;;5011624;28;20084;-76
2021/08/29 02:42:34;;;;;;;3.28;2.60;;;17.70;99.90;;;;;;5012793;28;20041;-76
2021/08/29 02:45:06;;;;;;;5.72;2.97;;;17.60;99.90;;;;;;5011451;28;20084;-76
2021/08/29 02:47:33;;;;;;;4.57;2.80;;;17.80;99.90;;;;;;5011727;28;20385;-76
2021/08/29 02:50:01;;;;;;;5.05;3.42;;;17.90;99.90;;;;;;5012708;28;20544;-76
2021/08/29 02:52:28;;;;;;;4.95;3.00;;;17.90;99.90;;;;;;5011532;28;20030;-76
2021/08/29 02:54:58;;;;;;;6.53;3.08;;;17.80;99.90;;;;;;5012628;28;20308;-76
2021/08/29 02:57:32;;;;;;;7.63;3.20;;;17.90;99.90;;;;;;5013431;28;20367;-75
2021/08/29 03:00:00;;;;;;;5.25;3.30;;;18.20;99.90;;;;;;5012583;28;20182;-76
2021/08/29 03:02:27;;;;;;;4.70;3.00;;;18.80;99.90;;;;;;5011563;28;20367;-75
2021/08/29 03:04:55;;;;;;;7.55;3.13;;;19.00;98.70;;;;;;5012220;28;20124;-75
2021/08/29 03:07:22;;;;;;;4.10;2.75;;;18.60;98.50;;;;;;5012626;28;20355;-75
2021/08/29 03:09:50;;;;;;;5.05;2.60;;;18.10;98.90;;;;;;5011266;28;20026;-75
2021/08/29 03:12:18;;;;;;;2.97;2.70;;;17.80;98.70;;;;;;5012903;28;20056;-75
2021/08/29 03:14:46;;;;;;;3.05;2.45;;;17.60;99.00;;;;;;5016155;28;20032;-75
2021/08/29 03:17:14;;;;;;;4.90;2.67;;;17.80;99.70;;;;;;5014860;28;20034;-77
2021/08/29 03:19:42;;;;;;;4.15;2.47;;;18.00;99.40;;;;;;5015990;28;20450;-75
2021/08/29 03:22:10;;;;;;;4.65;2.80;;;18.30;98.70;;;;;;5016120;28;20120;-75
2021/08/29 03:24:37;;;;;;;5.90;2.70;;;18.60;97.90;;;;;;5016082;28;20510;-75
2021/08/29 03:27:05;;;;;;;4.47;2.85;;;18.70;97.80;;;;;;5014575;28;20022;-74
2021/08/29 03:29:32;;;;;;;6.07;3.35;;;18.70;96.90;;;;;;5014547;28;20021;-77
2021/08/29 03:32:00;;;;;;;5.50;4.00;;;18.30;97.70;;;;;;5014697;28;20036;-76
2021/08/29 03:34:28;;;;;;;5.75;3.13;;;18.20;97.10;;;;;;5016944;28;20129;-76
2021/08/29 03:36:57;;;;;;;4.15;3.03;;;18.40;97.40;;;;;;5016984;28;20101;-77
2021/08/29 03:39:27;;;;;;;7.05;3.70;;;18.50;96.70;;;;;;5016271;28;20026;-76
2021/08/29 03:41:58;;;;;;;5.45;3.65;;;18.60;96.60;;;;;;5016472;28;20045;-77
2021/08/29 03:44:26;;;;;;;7.57;3.85;;;18.70;97.20;;;;;;5016406;28;20029;-76
2021/08/29 03:46:54;;;;;;;4.07;3.67;;;18.50;97.00;;;;;;5014832;28;20120;-76
2021/08/29 03:49:23;;;;;;;6.97;3.78;;;18.40;97.40;;;;;;5014695;28;20496;-75
2021/08/29 03:51:51;;;;;;;4.72;3.70;;;18.40;97.30;;;;;;5015284;28;20017;-75
2021/08/29 03:54:19;;;;;;;5.00;3.20;;;18.30;97.50;;;;;;5014238;28;20026;-76
2021/08/29 03:56:46;;;;;;;7.03;3.45;;;18.20;97.20;;;;;;5015707;28;20049;-76
2021/08/29 03:59:14;;;;;;;5.22;3.38;;;18.10;97.60;;;;;;5014302;28;20030;-76
2021/08/29 04:01:41;;;;;;;5.05;2.83;;;18.30;97.00;;;;;;5015686;28;20022;-76
2021/08/29 04:04:08;;;;;;;3.72;2.83;;;18.20;94.30;;;;;;5015284;28;20030;-76
2021/08/29 04:06:37;;;;;;;3.10;2.70;;;18.30;94.60;;;;;;5016114;28;20108;-76
2021/08/29 04:09:06;;;;;;;4.13;3.00;;;18.40;95.00;;;;;;5014118;28;20080;-76
2021/08/29 04:11:35;;;;;;;4.90;2.70;;;18.20;94.80;;;;;;5015168;28;20087;-76
2021/08/29 04:14:03;;;;;;;4.28;2.60;;;18.30;94.60;;;;;;5013875;28;20033;-76
2021/08/29 04:16:30;;;;;;;4.28;2.50;;;18.30;95.40;;;;;;5015016;28;20029;-76
2021/08/29 04:19:00;;;;;;;4.65;3.17;;;18.50;95.70;;;;;;5013735;28;20121;-76
2021/08/29 04:21:27;;;;;;;3.45;2.65;;;18.50;95.90;;;;;;5014878;28;20022;-76
2021/08/29 04:23:55;;;;;;;5.97;2.80;;;18.40;95.70;;;;;;5013411;28;20589;-76
2021/08/29 04:26:22;;;;;;;4.35;2.78;;;18.30;96.10;;;;;;5015042;28;20076;-76
2021/08/29 04:28:50;;;;;;;4.03;2.50;;;18.10;95.90;;;;;;5013630;28;20037;-76
2021/08/29 04:31:31;;;;;;;5.25;2.63;;;18.10;96.20;;;;;;5014880;28;20022;-76
2021/08/29 04:34:03;;;;;;;5.05;2.95;;;18.10;96.70;;;;;;5013396;28;20033;-75
2021/08/29 04:36:31;;;;;;;5.35;2.70;;;18.10;96.50;;;;;;5013554;28;20052;-76
2021/08/29 04:39:05;;;;;;;5.32;2.90;;;18.20;96.50;;;;;;5014744;28;20030;-76
2021/08/29 04:41:32;;;;;;;3.97;2.72;;;18.30;96.30;;;;;;5013534;28;20025;-76
2021/08/29 04:44:01;;;;;;;4.90;2.78;;;18.50;96.20;;;;;;5014486;28;20061;-76
2021/08/29 04:46:29;;;;;;;3.47;2.80;;;18.90;95.30;;;;;;5014144;28;20017;-75
2021/08/29 04:48:56;;;;;;;3.33;3.03;;;18.90;95.20;;;;;;5013538;28;20064;-76
2021/08/29 04:51:24;;;;;;;3.95;2.80;;;18.70;94.40;;;;;;5014400;28;20105;-76
2021/08/29 04:53:51;;;;;;;2.80;2.60;;;18.80;94.60;;;;;;5014304;28;20053;-76
2021/08/29 04:56:18;;;;;;;5.57;2.80;;;18.50;94.00;;;;;;5013630;28;20030;-76
2021/08/29 04:58:46;;;;;;;4.70;2.30;;;18.30;95.60;;;;;;5013042;28;20026;-74
2021/08/29 05:01:13;;;;;;;3.28;2.47;;;18.20;95.30;;;;;;5013122;28;20022;-75
2021/08/29 05:03:40;;;;;;;5.93;2.92;;;18.10;95.60;;;;;;5012748;28;20519;-75
2021/08/29 05:06:08;;;;;;;3.67;2.60;;;17.90;95.30;;;;;;5013776;28;20033;-75
2021/08/29 05:08:35;;;;;;;3.55;2.40;;;18.00;95.60;;;;;;5014248;28;20104;-76
2021/08/29 05:11:02;;;;;;;3.10;2.80;;;18.10;95.50;;;;;;5013949;28;20018;-76
2021/08/29 05:13:30;;;;;;;5.68;2.90;;;18.20;95.10;;;;;;5014093;28;20124;-75
2021/08/29 05:15:57;;;;;;;4.90;2.80;;;18.10;94.40;;;;;;5013920;28;20026;-75
2021/08/29 05:18:24;;;;;;;4.03;2.80;;;18.10;94.80;;;;;;5012845;28;20049;-74
2021/08/29 05:20:55;;;;;;;3.75;3.30;;;18.00;95.30;;;;;;5012639;28;20133;-75
2021/08/29 05:23:22;;;;;;;4.43;2.90;;;18.00;95.20;;;;;;5012748;28;20434;-75
2021/08/29 05:25:49;;;;;;;6.60;3.30;;;18.00;95.20;;;;;;5012415;28;20030;-75
2021/08/29 05:28:16;;;;;;;4.53;2.90;;;17.90;95.20;;;;;;5012295;28;20045;-75
2021/08/29 05:30:44;;;;;;;4.32;2.80;;;17.90;96.40;;;;;;5012885;28;20032;-76
2021/08/29 05:33:12;;;;;;;5.47;3.42;;;17.80;95.80;;;;;;5013689;28;20025;-76
2021/08/29 05:35:39;;;;;;;4.68;3.28;;;17.70;96.20;;;;;;5013034;28;20470;-75
2021/08/29 05:38:06;;;;;;;6.43;3.20;;;17.70;96.20;;;;;;5013449;28;20029;-75
2021/08/29 05:40:34;;;;;;;4.75;3.30;;;17.60;96.40;;;;;;5013309;28;20068;-75
2021/08/29 05:43:01;;;;;;;8.75;3.35;;;17.50;96.90;;;;;;5012256;28;20070;-75
2021/08/29 05:45:28;;;;;;;12.27;3.60;;;17.50;97.50;;;;;;5012172;28;20017;-75
2021/08/29 05:47:56;;;;;;;9.80;3.20;;;17.50;98.90;;;;;;5013204;28;20018;-74
2021/08/29 05:50:23;;;;;;;6.22;4.10;;;17.40;98.30;;;;;;5014011;28;20469;-79
2021/08/29 05:52:50;;;;;;;6.30;3.60;;;17.20;98.30;;;;;;5016382;28;20383;-79
2021/08/29 05:55:18;;;;;;;4.95;3.70;;;17.10;98.30;;;;;;5014761;28;20104;-78
2021/08/29 05:57:45;;;;;;;5.20;3.40;;;17.10;98.70;;;;;;5014154;28;20030;-75
2021/08/29 06:00:13;;;;;;;4.15;3.70;;;16.90;98.30;;;;;;5012112;28;20053;-75
2021/08/29 06:02:40;;;;;;;5.20;3.72;;;16.90;98.50;;;;;;5014179;28;20021;-74
2021/08/29 06:05:08;;;;;;;7.35;3.97;;;16.80;98.50;;;;;;5012622;28;20037;-76
2021/08/29 06:07:35;;;;;;;4.65;3.20;;;16.80;98.60;;;;;;5012506;28;20053;-75
2021/08/29 06:10:03;;;;;;;7.57;3.53;;;16.80;99.10;;;;;;5013477;28;20509;-75
2021/08/29 06:12:31;;;;;;;8.98;3.50;;;16.80;99.60;;;;;;5016226;28;20034;-76
2021/08/29 06:14:58;;;;;;;4.80;2.92;;;16.80;99.60;;;;;;5017603;28;20383;-76
2021/08/29 06:17:25;;;;;;;4.28;3.20;;;16.70;98.80;;;;;;5013120;28;20371;-77
2021/08/29 06:19:53;;;;;;;4.70;3.35;;;16.60;99.20;;;;;;5012936;28;20026;-74
2021/08/29 06:22:20;;;;;;;8.43;3.60;;;16.50;99.90;;;;;;5014024;28;20022;-75
2021/08/29 06:24:47;;;;;;;6.38;3.20;;;16.50;99.90;;;;;;5013603;28;20079;-75
2021/08/29 06:27:15;;;;;;;5.35;3.08;;;16.60;99.90;;;;;;5013432;28;20018;-75
2021/08/29 06:29:42;;;;;;;7.88;3.58;;;16.50;99.70;;;;;;5016396;28;20034;-74
2021/08/29 06:32:09;;;;;;;7.55;3.42;;;16.60;99.90;;;;;;5012181;28;20599;-73
2021/08/29 06:34:37;;;;;;;6.43;3.45;;;16.50;99.90;;;;;;5013519;28;20028;-73
2021/08/29 06:37:04;;;;;;;7.18;4.22;;;16.50;99.90;;;;;;5012758;28;20064;-72
2021/08/29 06:39:32;;;;;;;6.22;3.97;;;16.50;99.90;;;;;;5011568;28;20033;-73
2021/08/29 06:41:59;;;;;;;9.13;4.70;;;16.40;99.90;;;;;;5012872;28;20036;-73
2021/08/29 06:44:26;;;;;;;5.35;4.38;;;16.20;99.90;;;;;;5013007;28;20478;-72
2021/08/29 06:46:54;;;;;;;5.13;4.72;;;16.20;99.90;;;;;;5013200;28;20522;-75
2021/08/29 06:49:21;;;;;;;5.72;5.03;;;16.10;99.90;;;;;;5016818;28;20363;-75
2021/08/29 06:51:48;;;;;;;5.75;4.78;;;16.10;99.90;;;;;;5017023;28;20028;-74
2021/08/29 06:54:16;;;;;;;8.68;5.68;;;16.00;99.90;;;;;;5015594;28;20521;-73
2021/08/29 06:56:43;;;;;;;7.18;5.30;;;15.90;99.90;;;;;;5015346;28;20026;-74
2021/08/29 06:59:11;;;;;;;6.45;5.85;;;15.70;99.90;;;;;;5016517;28;20026;-75
2021/08/29 07:01:38;;;;;;;8.07;5.82;;;15.60;99.90;;;;;;5015264;28;20091;-75
2021/08/29 07:04:08;;;;;;;7.05;6.35;;;15.50;99.90;;;;;;5017071;28;20386;-76
2021/08/29 07:06:37;;;;;;;8.55;6.57;;;15.40;99.90;;;;;;5016801;28;20050;-75
2021/08/29 07:09:07;;;;;;;7.93;6.60;;;15.40;99.90;;;;;;5017014;28;20501;-74
2021/08/29 07:11:34;;;;;;;7.38;6.65;;;15.30;99.90;;;;;;5015867;28;20488;-74
2021/08/29 07:14:02;;;;;;;7.47;6.75;;;15.30;99.90;;;;;;5015017;28;20022;-75
2021/08/29 07:16:29;;;;;;;8.13;6.85;;;15.20;99.90;;;;;;5016123;28;20104;-73
2021/08/29 07:18:57;;;;;;;7.70;7.10;;;15.20;99.90;;;;;;5016018;28;20363;-74
2021/08/29 07:21:25;;;;;;;7.85;7.25;;;15.10;99.90;;;;;;5016163;28;20018;-75
2021/08/29 07:23:52;;;;;;;8.23;7.28;;;14.90;99.90;;;;;;5016229;28;20052;-75
2021/08/29 07:26:21;;;;;;;7.60;7.00;;;14.80;99.90;;;;;;5016112;28;20223;-75
2021/08/29 07:28:48;;;;;;;8.73;7.90;;;14.70;99.90;;;;;;5014693;28;20064;-74
2021/08/29 07:31:16;;;;;;;8.57;7.93;;;14.60;99.90;;;;;;5015879;28;20022;-75
2021/08/29 07:33:43;;;;;;;8.35;7.75;;;14.30;99.90;;;;;;5016341;28;20022;-73
2021/08/29 07:36:10;;;;;;;8.98;8.13;;;14.10;99.90;;;;;;5014413;28;20030;-76
2021/08/29 07:38:38;;;;;;;9.05;8.30;;;14.00;99.90;;;;;;5014107;28;20040;-74
2021/08/29 07:41:05;;;;;;;11.07;10.07;;;13.80;99.90;;;;;;5014520;28;20072;-73
2021/08/29 07:43:32;;;;;;;11.13;10.05;;;13.70;99.90;;;;;;5014036;28;20026;-75
2021/08/29 07:46:00;;;;;;;10.45;9.65;;;13.70;99.90;;;;;;5015214;28;20064;-74
2021/08/29 07:48:27;;;;;;;11.55;10.48;;;13.50;99.90;;;;;;5015464;28;20074;-74
2021/08/29 07:50:54;;;;;;;10.70;9.80;;;13.50;99.90;;;;;;5015260;28;20121;-75
2021/08/29 07:53:22;;;;;;;10.85;9.75;;;13.40;99.90;;;;;;5015439;28;20021;-75
2021/08/29 07:55:49;;;;;;;10.95;10.15;;;13.30;99.90;;;;;;5015141;28;20026;-74
2021/08/29 07:58:18;;;;;;;12.35;11.20;;;13.20;99.90;;;;;;5014649;28;20125;-74
2021/08/29 08:00:46;;;;;;;12.85;11.85;;;13.20;99.90;;;;;;5014962;28;20042;-74
2021/08/29 08:03:13;;;;;;;14.57;13.20;;;13.10;99.90;;;;;;5013757;28;20022;-74
2021/08/29 08:05:40;;;;;;;14.05;12.80;;;13.00;99.90;;;;;;5014579;28;20046;-74
2021/08/29 08:08:08;;;;;;;13.90;12.50;;;13.00;99.90;;;;;;5013477;28;20018;-74
2021/08/29 08:10:35;;;;;;;13.70;12.48;;;13.00;99.90;;;;;;5014878;28;20111;-74
2021/08/29 08:13:03;;;;;;;14.40;13.10;;;13.00;99.90;;;;;;5014844;28;20405;-73
2021/08/29 08:15:30;;;;;;;13.68;12.55;;;12.90;99.90;;;;;;5013366;28;20029;-73
2021/08/29 08:17:58;;;;;;;13.80;12.55;;;12.80;99.90;;;;;;5014798;28;20406;-74
2021/08/29 08:20:25;;;;;;;14.35;13.23;;;12.80;99.90;;;;;;5014578;28;20037;-73
2021/08/29 08:22:52;;;;;;;14.25;12.75;;;12.80;99.90;;;;;;5014528;28;20026;-74
2021/08/29 08:25:20;;;;;;;13.35;12.15;;;12.70;99.90;;;;;;5014614;28;20413;-74
2021/08/29 08:27:47;;;;;;;13.57;12.38;;;12.70;99.90;;;;;;4997104;28;20022;-73
2021/08/29 08:30:15;;;;;;;14.00;12.70;;;12.60;99.90;;;;;;5013371;28;20509;-75
2021/08/29 08:32:43;;;;;;;15.00;13.45;;;12.60;99.90;;;;;;5014635;28;20026;-74
2021/08/29 08:35:10;;;;;;;14.50;13.30;;;12.60;99.90;;;;;;5013271;28;20026;-73
2021/08/29 08:37:38;;;;;;;14.50;13.20;;;12.60;99.90;;;;;;5013454;28;20087;-75
2021/08/29 08:40:06;;;;;;;14.75;13.52;;;12.60;99.90;;;;;;5014529;28;20097;-74
2021/08/29 08:42:33;;;;;;;14.55;13.43;;;12.50;99.90;;;;;;5013160;28;20054;-75
2021/08/29 08:45:01;;;;;;;13.73;12.43;;;12.60;99.90;;;;;;5013232;28;20029;-74
2021/08/29 08:47:33;;;;;;;13.75;12.60;;;12.60;99.90;;;;;;5013303;28;20033;-73
2021/08/29 08:50:03;;;;;;;13.65;12.45;;;12.60;99.90;;;;;;5014460;28;20061;-74
2021/08/29 08:52:31;;;;;;;14.02;12.82;;;12.70;99.90;;;;;;5013333;28;20030;-74
2021/08/29 08:55:02;;;;;;;13.18;12.10;;;12.70;99.90;;;;;;5014216;28;20503;-74
2021/08/29 08:57:28;;;;;;;;;;;12.70;99.90;;;;;;4997460;28;20034;-74
2021/08/29 08:59:57;;;;;;;13.25;12.20;;;12.70;99.90;;;;;;5014315;28;20262;-74
2021/08/29 09:02:26;;;;;;;12.00;10.95;;;12.70;99.90;;;;;;5013085;28;20463;-74
2021/08/29 09:04:54;;;;;;;11.63;10.82;;;12.70;99.90;;;;;;5012823;28;20565;-74
2021/08/29 09:07:23;;;;;;;12.05;10.98;;;12.70;99.90;;;;;;5014051;28;20022;-74
2021/08/29 09:09:50;;;;;;;11.65;10.65;;;12.60;99.90;;;;;;5012036;28;20437;-73
2021/08/29 09:12:18;;;;;;;11.43;10.40;;;12.60;99.90;;;;;;5014184;28;20053;-74
2021/08/29 09:14:53;;;;;;;12.13;11.07;;;12.60;99.90;;;;;;5014024;28;20034;-73
2021/08/29 09:17:30;;;;;;;11.77;10.73;;;12.50;99.90;;;;;;5012419;28;20037;-72
2021/08/29 09:20:21;;;;;;;12.13;11.10;;;12.50;99.90;;;;;;5012521;28;20040;-73
2021/08/29 09:22:54;;;;;;;12.93;11.75;;;12.40;99.90;;;;;;5013779;28;20104;-74
2021/08/29 09:25:30;;;;;;;13.40;12.20;;;12.40;99.90;;;;;;5012459;28;20053;-73
2021/08/29 09:28:00;;;;;;;11.77;10.80;;;12.30;99.90;;;;;;5013737;28;20018;-73
2021/08/29 09:30:31;;;;;;;13.02;11.80;;;12.20;99.90;;;;;;5013706;28;20065;-73
2021/08/29 09:33:05;;;;;;;11.73;10.77;;;12.20;99.90;;;;;;5012396;28;20034;-72
2021/08/29 09:35:36;;;;;;;12.23;11.20;;;12.10;99.90;;;;;;5013651;28;20034;-73
2021/08/29 09:38:06;;;;;;;12.88;11.43;;;12.10;99.90;;;;;;5013605;28;20030;-73
2021/08/29 09:40:35;;;;;;;13.10;11.90;;;12.00;99.90;;;;;;5012276;28;20029;-72
2021/08/29 09:43:04;;;;;;;12.70;11.48;;;12.00;99.90;;;;;;5012394;28;20389;-73
2021/08/29 09:45:34;;;;;;;13.73;12.52;;;11.90;99.90;;;;;;5013505;28;20097;-73
2021/08/29 09:48:08;;;;;;;13.18;11.93;;;11.90;99.90;;;;;;5013378;28;20014;-74
2021/08/29 09:50:38;;;;;;;13.45;12.15;;;11.90;99.90;;;;;;5012086;28;20620;-76
2021/08/29 09:53:10;;;;;;;13.30;12.05;;;11.80;99.90;;;;;;5011907;28;20025;-74
2021/08/29 09:55:40;;;;;;;14.15;12.95;;;11.80;99.90;;;;;;5012057;28;20029;-74
2021/08/29 09:58:27;;;;;;;13.15;11.95;;;11.70;99.90;;;;;;5011981;28;20064;-75
2021/08/29 10:01:17;;;;;;;13.88;12.75;;;11.60;99.90;;;;;;5011938;28;20084;-75
2021/08/29 10:03:49;;;;;;;13.02;12.00;;;11.60;99.90;;;;;;5012058;28;20026;-78
2021/08/29 10:06:18;;;;;;;14.18;13.05;;;11.50;99.90;;;;;;5011722;28;20490;-75
2021/08/29 10:08:51;;;;;;;13.60;12.35;;;11.80;99.90;;;;;;5011807;28;20045;-75
2021/08/29 10:11:20;;;;;;;13.20;12.10;;;11.60;99.90;;;;;;5013289;28;20014;-76
2021/08/29 10:13:48;;;;;;;14.00;12.80;;;11.50;99.90;;;;;;5013051;28;20018;-75
2021/08/29 10:16:17;;;;;;;14.23;12.88;;;11.40;99.90;;;;;;5011789;28;20029;-74
2021/08/29 10:18:48;;;;;;;14.52;13.32;;;11.20;99.90;;;;;;5011744;28;20123;-76
2021/08/29 10:21:18;;;;;;;13.85;12.65;;;11.10;99.90;;;;;;5012817;28;20506;-75
2021/08/29 10:23:48;;;;;;;14.60;13.27;;;11.10;99.90;;;;;;5018128;28;20025;-74
2021/08/29 10:26:20;;;;;;;14.85;13.55;;;11.10;99.90;;;;;;5019662;28;20382;-75
2021/08/29 10:29:07;;;;;;;15.25;14.05;;;11.10;99.90;;;;;;5019546;28;20109;-75
2021/08/29 10:32:00;;;;;;;15.15;13.68;;;11.00;99.90;;;;;;5018189;28;20041;-75
2021/08/29 10:34:31;;;;;;;14.52;13.25;;;10.90;99.90;;;;;;5017926;28;20025;-74
2021/08/29 10:36:59;;;;;;;15.50;14.10;;;10.90;99.90;;;;;;5018145;28;20032;-74
2021/08/29 10:39:26;;;;;;;15.88;14.60;;;10.90;99.90;;;;;;5019330;28;20025;-74
2021/08/29 10:41:54;;;;;;;15.23;13.93;;;10.90;99.90;;;;;;5019515;28;20056;-74
2021/08/29 10:44:22;;;;;;;15.85;14.35;;;10.80;99.90;;;;;;5019319;28;20041;-74
2021/08/29 10:46:50;;;;;;;15.45;14.25;;;10.80;99.90;;;;;;5017904;28;20125;-76
2021/08/29 10:49:19;;;;;;;14.98;13.75;;;10.70;99.90;;;;;;5019183;28;20018;-75
2021/08/29 10:51:50;;;;;;;15.02;13.73;;;10.70;99.90;;;;;;5019148;28;20446;-75
2021/08/29 10:54:17;;;;;;;13.30;12.40;;;10.70;99.90;;;;;;5017928;28;20068;-77
2021/08/29 10:56:47;;;;;;;16.70;13.85;;;10.70;99.90;;;;;;5019135;28;20076;-77
2021/08/29 10:59:21;;;;;;;15.10;13.57;;;10.70;99.90;;;;;;5017794;28;20030;-78
2021/08/29 11:02:10;;;;;;;14.02;12.93;;;10.70;99.90;;;;;;5019183;28;20076;-76
2021/08/29 11:04:37;;;;;;;13.43;12.32;;;10.70;99.90;;;;;;5017793;28;20582;-76
2021/08/29 11:07:06;;;;;;;13.90;12.80;;;10.70;99.90;;;;;;5017789;28;20060;-76
2021/08/29 11:09:37;;;;;;;14.98;13.68;;;10.70;99.90;;;;;;5017786;28;20084;-76
2021/08/29 11:12:27;;;;;;;14.80;13.48;;;10.70;99.90;;;;;;5017803;28;20021;-74
2021/08/29 11:14:56;;;;;;;15.60;14.18;;;10.60;99.90;;;;;;5017666;28;20034;-74
2021/08/29 11:17:32;;;;;;;15.25;14.05;;;10.50;99.90;;;;;;5017637;28;20030;-75
2021/08/29 11:20:05;;;;;;;15.20;13.80;;;10.50;99.90;;;;;;5018958;28;20529;-74
2021/08/29 11:22:42;;;;;;;15.60;14.20;;;10.50;99.90;;;;;;5017607;28;20048;-73
2021/08/29 11:25:21;;;;;;;15.10;13.90;;;10.40;99.90;;;;;;5018916;28;20026;-74
2021/08/29 11:27:59;;;;;;;15.88;14.57;;;10.50;99.90;;;;;;5018042;28;20087;-75
2021/08/29 11:30:35;;;;;;;15.73;14.25;;;10.40;99.90;;;;;;5018980;28;20041;-74
2021/08/29 11:33:08;;;;;;;16.38;14.82;;;10.40;99.90;;;;;;5016207;28;20026;-75
2021/08/29 11:35:39;;;;;;;16.15;14.75;;;10.40;99.90;;;;;;5014782;28;20482;-75
2021/08/29 11:38:09;;;;;;;16.27;14.45;;;10.40;99.90;;;;;;5014554;28;20421;-75
2021/08/29 11:41:13;;;;;;;15.55;14.18;;;10.40;99.90;;;;;;5014784;28;20026;-76
2021/08/29 11:43:49;;;;;;;16.27;14.77;;;10.30;99.90;;;;;;5015801;28;20474;-75
2021/08/29 11:46:18;;;;;;;15.95;14.40;;;10.40;99.90;;;;;;5015628;28;20029;-74
2021/08/29 11:48:50;;;;;;;16.52;14.73;;;10.40;99.90;;;;;;5014361;28;20021;-76
2021/08/29 11:51:27;;;;;;;14.65;13.45;;;10.40;99.90;;;;;;5015733;28;20445;-75
2021/08/29 11:53:54;;;;;;;16.55;14.95;;;10.40;99.90;;;;;;5015646;28;20113;-75
2021/08/29 11:56:30;;;;;;;16.73;15.23;;;10.40;99.90;;;;;;5015295;28;20422;-75
2021/08/29 11:59:03;;;;;;;16.38;14.73;;;10.40;99.90;;;;;;5014079;28;20025;-74
2021/08/29 12:01:31;;;;;;;15.75;14.25;;;10.40;99.90;;;;;;5015338;28;20482;-74
2021/08/29 12:04:00;;;;;;;15.73;14.13;;;10.40;99.90;;;;;;5015413;28;20033;-74
2021/08/29 12:06:42;;;;;;;15.25;13.77;;;10.40;99.90;;;;;;5015293;28;20054;-74
2021/08/29 12:09:23;;;;;;;16.38;14.88;;;10.30;99.90;;;;;;5015338;28;20021;-74
2021/08/29 12:11:51;;;;;;;28.77;25.73;;;10.30;99.90;;;;;;5013894;28;20025;-74
2021/08/29 12:14:27;;;;;;;34.17;30.80;;;10.30;99.90;;;;;;5013845;28;20120;-74
2021/08/29 12:16:59;;;;;;;32.63;29.52;;;10.40;99.90;;;;;;5014910;28;20490;-74
2021/08/29 12:19:36;;;;;;;29.17;26.50;;;10.50;99.90;;;;;;5013615;28;20057;-74
2021/08/29 12:22:10;;;;;;;30.92;28.05;;;10.50;99.90;;;;;;5015027;28;20425;-74
2021/08/29 12:24:40;;;;;;;27.52;24.58;;;10.40;99.90;;;;;;5013655;28;20018;-74
2021/08/29 12:27:10;;;;;;;28.00;25.13;;;10.40;99.90;;;;;;5014964;28;20064;-75
2021/08/29 12:30:05;;;;;;;23.40;21.10;;;10.40;99.90;;;;;;5015027;28;20053;-74
2021/08/29 12:32:37;;;;;;;23.52;21.33;;;10.40;99.90;;;;;;5014232;28;20033;-75
2021/08/29 12:35:08;;;;;;;22.77;20.42;;;10.40;99.90;;;;;;5013593;28;20072;-75
2021/08/29 12:37:40;;;;;;;;;;;10.40;99.90;;;;;;5013982;28;20065;-74
2021/08/29 12:40:15;;;;;;;17.80;16.02;;;10.50;99.90;;;;;;5013430;28;19909;-74
2021/08/29 12:42:45;;;;;;;16.90;15.40;;;10.50;99.90;;;;;;5014652;28;20022;-75
2021/08/29 12:45:15;;;;;;;16.15;14.75;;;10.60;99.90;;;;;;5013415;28;20037;-74
2021/08/29 12:47:45;;;;;;;16.27;14.75;;;10.70;99.90;;;;;;5013304;28;20072;-75
2021/08/29 12:50:16;;;;;;;16.00;14.57;;;10.80;99.90;;;;;;5013223;28;20041;-74
2021/08/29 12:52:48;;;;;;;15.07;13.57;;;10.90;99.90;;;;;;5014522;28;20113;-74
2021/08/29 12:55:18;;;;;;;15.27;13.82;;;10.90;99.90;;;;;;5014846;28;20359;-74